Data for 10/22/2014

Time Sea-Level Adjusted Pressure Absolute Pressure Temperature Relative Humidity Dew Point   
(mb) (inHg) (mb) (inHg) (C) (F) (%) (C) (F)
00:05 1019 30.09 848 25.04 4.1 39.4 78 0.6 33.1
00:10 1019 30.09 848 25.04 4 39.1 80 0.8 33.5
00:15 1019 30.09 848 25.04 3.8 38.8 80 0.7 33.3
00:20 1019 30.09 848 25.04 3.9 39 79 0.7 33.2
00:25 1019 30.09 848 25.04 3.8 38.8 80 0.6 33.2
00:30 1019 30.09 848 25.04 3.8 38.8 79 0.5 32.9
00:35 1019 30.09 848 25.04 3.7 38.6 79 0.4 32.7
00:40 1019 30.09 848 25.04 3.7 38.6 78 0.3 32.5
00:45 1019 30.09 848 25.04 3.7 38.7 77 0.1 32.1
00:50 1019 30.09 848 25.04 3.9 39 77 0.2 32.4
00:55 1019 30.09 848 25.04 3.9 39.1 76 0.1 32.2
01:00 1019 30.09 848 25.04 4 39.2 77 0.4 32.7
01:05 1019 30.09 848 25.04 4 39.2 78 0.6 33
01:10 1019 30.09 848 25.04 3.9 39 80 0.7 33.2
01:15 1019 30.09 848 25.04 3.7 38.6 81 0.7 33.3
01:20 1019 30.09 848 25.04 3.5 38.3 80 0.4 32.8
01:25 1019 30.09 848 25.04 3.5 38.3 80 0.4 32.8
01:30 1019 30.09 848 25.04 3.5 38.3 79 0.3 32.5
01:35 1019 30.09 848 25.04 3.8 38.8 73 -0.6 30.9
01:40 1019 30.09 848 25.04 4.1 39.5 73 -0.3 31.4
01:45 1019 30.09 848 25.04 4.1 39.4 75 0.1 32.2
01:50 1019 30.09 848 25.04 3.9 39 74 -0.3 31.5
01:55 1019 30.09 848 25.04 3.9 39 73 -0.5 31
02:00 1019 30.09 848 25.04 4 39.1 76 0 32.1
02:05 1019 30.09 848 25.04 3.8 38.9 76 -0.1 31.9
02:10 1019 30.09 848 25.04 3.6 38.5 79 0.3 32.6
02:15 1019 30.09 848 25.04 3.8 38.8 73 -0.6 30.9
02:20 1019 30.09 848 25.04 3.8 38.9 75 -0.3 31.5
02:25 1019 30.09 848 25.04 3.7 38.7 76 -0.2 31.7
02:30 1019 30.09 848 25.04 3.6 38.5 74 -0.7 30.8
02:35 1019 30.09 848 25.04 3.6 38.5 74 -0.6 30.9
02:40 1019 30.09 848 25.04 3.5 38.4 76 -0.3 31.4
02:45 1019 30.09 848 25.04 3.2 37.8 79 -0.1 31.9
02:50 1019 30.09 848 25.04 2.8 37 82 -0 32
02:55 1019 30.09 848 25.04 2.8 37 78 -0.6 30.9
03:00 1019 30.09 848 25.04 3.1 37.6 75 -0.8 30.5
03:05 1019 30.09 848 25.04 3.3 37.9 76 -0.5 31.1
03:10 1019 30.09 848 25.04 3.2 37.8 76 -0.6 30.9
03:15 1019 30.09 848 25.04 3.1 37.6 76 -0.8 30.6
03:20 1019 30.09 848 25.04 3.1 37.5 78 -0.4 31.3
03:25 1019 30.09 848 25.04 2.9 37.1 76 -1 30.3
03:30 1019 30.09 848 25.04 3.2 37.8 73 -1.1 30.1
03:35 1019 30.09 848 25.04 3.4 38 73 -0.9 30.3
03:40 1019 30.09 848 25.04 3.3 37.9 73 -1.2 29.9
03:45 1019 30.09 848 25.04 3.2 37.8 75 -0.9 30.4
03:50 1019 30.09 848 25.04 3.1 37.6 72 -1.4 29.5
03:55 1019 30.09 848 25.04 3.5 38.4 70 -1.3 29.6
04:00 1019 30.09 848 25.04 3.4 38.2 72 -1 30.1
04:05 1019 30.09 848 25.04 3.4 38.1 73 -0.9 30.3
04:10 1019 30.09 848 25.04 3.2 37.8 72 -1.3 29.6
04:15 1019 30.09 848 25.04 3 37.5 74 -1.1 30.1
04:20 1019 30.09 848 25.04 2.7 36.9 78 -0.8 30.6
04:25 1019 30.09 848 25.04 2.5 36.5 77 -1.1 30
04:30 1019 30.09 848 25.04 2.5 36.5 79 -0.8 30.5
04:35 1019 30.09 848 25.04 2.4 36.3 76 -1.5 29.3
04:40 1019 30.09 848 25.04 3 37.4 69 -2.2 28
04:45 1019 30.09 848 25.04 3.5 38.4 68 -1.7 28.9
04:50 1019 30.09 848 25.04 3.5 38.3 68 -1.8 28.7
04:55 1019 30.09 848 25.04 3.2 37.8 69 -1.8 28.7
05:00 1019 30.09 848 25.04 3.1 37.6 69 -2 28.5
05:05 1019 30.09 848 25.04 3.1 37.5 71 -1.7 29
05:10 1019 30.09 848 25.04 3.1 37.5 68 -2.2 28.1
05:15 1019 30.09 848 25.04 3.3 37.9 68 -2 28.3
05:20 1019 30.09 849 25.07 3.2 37.7 69 -2 28.5
05:25 1019 30.09 849 25.07 2.9 37.3 69 -2.1 28.2
05:30 1019 30.09 849 25.07 2.8 37 73 -1.7 29
05:35 1019 30.09 849 25.07 2.2 36 76 -1.6 29
05:40 1019 30.09 849 25.07 1.9 35.4 76 -1.8 28.7
05:45 1019 30.09 849 25.07 1.8 35.2 80 -1.4 29.5
05:50 1019 30.09 849 25.07 1.4 34.5 80 -1.7 28.9
05:55 1019 30.09 849 25.07 1.3 34.4 80 -1.8 28.8
06:00 1020 30.12 849 25.07 1.3 34.4 81 -1.5 29.2
06:05 1020 30.12 849 25.07 1 33.8 80 -2 28.4
06:10 1020 30.12 849 25.07 1.1 34 81 -1.8 28.7
06:15 1020 30.12 849 25.07 1.3 34.3 79 -1.9 28.5
06:20 1020 30.12 849 25.07 1.4 34.5 79 -1.9 28.6
06:25 1020 30.12 849 25.07 1.5 34.6 79 -1.8 28.8
06:30 1020 30.12 849 25.07 1.2 34.2 81 -1.8 28.8
06:35 1020 30.12 849 25.07 0.8 33.5 82 -1.9 28.6
06:40 1020 30.12 849 25.07 0.9 33.7 81 -2 28.4
06:45 1020 30.12 849 25.07 1 33.7 80 -2.2 28.1
06:50 1020 30.12 849 25.07 1 33.8 80 -2 28.4
06:55 1020 30.12 849 25.07 0.9 33.6 80 -2.1 28.2
07:00 1020 30.12 849 25.07 0.9 33.7 80 -2.1 28.1
07:05 1020 30.12 849 25.07 0.8 33.5 81 -2.1 28.3
07:10 1020 30.12 849 25.07 0.6 33.1 81 -2.3 27.9
07:15 1020 30.12 849 25.07 0.7 33.3 79 -2.5 27.5
07:20 1020 30.12 849 25.07 0.8 33.4 80 -2.3 27.8
07:25 1020 30.12 849 25.07 1 33.8 78 -2.5 27.6
07:30 1020 30.12 849 25.07 1.2 34.1 77 -2.4 27.7
07:35 1020 30.12 849 25.07 1.4 34.5 76 -2.4 27.7
07:40 1020 30.12 849 25.07 1.6 34.8 75 -2.4 27.8
07:45 1020 30.12 849 25.07 1.7 35.1 74 -2.4 27.6
07:50 1020 30.12 849 25.07 2 35.7 74 -2.2 28.1
07:55 1020 30.12 849 25.07 2.1 35.8 73 -2.2 28
08:00 1020 30.12 849 25.07 2.2 35.9 72 -2.3 27.8
08:05 1020 30.12 849 25.07 2.7 36.9 69 -2.3 27.8
08:10 1020 30.12 849 25.07 3.2 37.8 68 -2.2 28.1
08:15 1020 30.12 850 25.1 3.4 38.1 68 -2 28.4
08:20 1020 30.12 849 25.07 3.6 38.6 68 -1.7 28.9
08:25 1020 30.12 850 25.1 3.8 38.9 66 -2 28.5
08:30 1020 30.12 850 25.1 3.9 39.1 65 -2 28.4
08:35 1020 30.12 850 25.1 4.2 39.5 64 -2 28.3
08:40 1020 30.12 850 25.1 4.6 40.2 64 -1.6 29.1
08:45 1020 30.12 849 25.07 4.9 40.9 62 -1.6 29
08:50 1020 30.12 849 25.07 5.6 42.1 62 -1.2 29.9
08:55 1020 30.12 850 25.1 5.4 41.7 63 -1 30.2
09:00 1020 30.12 849 25.07 5.5 41.9 61 -1.4 29.4
09:05 1020 30.12 849 25.07 6.1 43 61 -0.9 30.3
09:10 1020 30.12 849 25.07 6.4 43.5 58 -1.3 29.7
09:15 1020 30.12 849 25.07 6.6 43.9 56 -1.5 29.4
09:20 1020 30.12 849 25.07 6.8 44.3 56 -1.4 29.5
09:25 1020 30.12 849 25.07 7.6 45.6 55 -0.9 30.4
09:30 1020 30.12 849 25.07 8 46.4 51 -1.4 29.5
09:35 1020 30.12 849 25.07 8 46.5 48 -2.4 27.7
09:40 1020 30.12 849 25.07 7.9 46.3 49 -2 28.4
09:45 1020 30.12 849 25.07 7.9 46.3 48 -2.4 27.6
09:50 1020 30.12 849 25.07 8.1 46.5 48 -2.3 27.9
09:55 1020 30.12 849 25.07 9 48.2 46 -2.1 28.3
10:00 1020 30.12 849 25.07 8.8 47.9 45 -2.4 27.7
10:05 1020 30.12 849 25.07 9.2 48.6 43 -2.7 27.2
10:10 1020 30.12 849 25.07 9.1 48.4 43 -2.7 27.1
10:15 1020 30.12 849 25.07 8.7 47.6 43 -3.1 26.4
10:20 1020 30.12 849 25.07 8.7 47.7 41 -3.7 25.4
10:25 1020 30.12 849 25.07 9.1 48.3 41 -3.4 25.9
10:30 1020 30.12 849 25.07 9.7 49.4 40 -3.3 26
10:35 1020 30.12 849 25.07 9.9 49.8 40 -3.2 26.2
10:40 1020 30.12 849 25.07 10 50 41 -2.7 27.2
10:45 1020 30.12 849 25.07 9.6 49.2 40 -3.5 25.7
10:50 1020 30.12 849 25.07 10.4 50.7 36 -3.8 25.1
10:55 1020 30.12 849 25.07 10.1 50.2 39 -3.2 26.2
11:00 1020 30.12 849 25.07 10.1 50.2 38 -3.6 25.5
11:05 1020 30.12 849 25.07 10.7 51.2 36 -3.8 25.2
11:10 1020 30.12 849 25.07 11.2 52.2 35 -3.7 25.4
11:15 1020 30.12 849 25.07 12 53.6 34 -3.2 26.2
11:20 1020 30.12 849 25.07 12 53.6 34 -3.3 26
11:25 1020 30.12 849 25.07 11.2 52.2 36 -3.4 25.9
11:30 1019 30.09 849 25.07 11.8 53.2 34 -3.5 25.6
11:35 1019 30.09 849 25.07 12 53.6 35 -3 26.6
11:40 1019 30.09 849 25.07 11.6 52.9 33 -4 24.8
11:45 1019 30.09 849 25.07 12.1 53.8 33 -3.7 25.3
11:50 1019 30.09 849 25.07 12.5 54.4 33 -3.3 26.1
11:55 1019 30.09 848 25.04 13.2 55.8 32 -2.9 26.7
12:00 1019 30.09 848 25.04 13.3 55.9 32 -3.1 26.4
12:05 1019 30.09 848 25.04 12.5 54.5 32 -3.5 25.7
12:10 1019 30.09 848 25.04 12.6 54.6 33 -3.2 26.2
12:15 1019 30.09 848 25.04 12.5 54.4 33 -3.4 25.8
12:20 1019 30.09 848 25.04 11.8 53.3 36 -2.8 27
12:25 1019 30.09 848 25.04 12.5 54.4 33 -3.4 25.9
12:30 1019 30.09 848 25.04 13.4 56.1 31 -3.2 26.2
12:35 1019 30.09 848 25.04 13.2 55.7 33 -2.9 26.8
12:40 1019 30.09 848 25.04 13.3 55.9 32 -3.1 26.4
12:45 1019 30.09 848 25.04 13.1 55.6 33 -2.8 27
12:50 1019 30.09 848 25.04 12.8 55.1 32 -3.5 25.7
12:55 1019 30.09 848 25.04 13.6 56.4 32 -2.7 27.1
13:00 1019 30.09 848 25.04 13.9 57 31 -3 26.6
13:05 1019 30.09 848 25.04 13.7 56.6 32 -2.7 27.1
13:10 1019 30.09 848 25.04 13.9 57 31 -2.8 26.9
13:15 1018 30.06 848 25.04 14 57.1 32 -2.6 27.3
13:20 1018 30.06 848 25.04 13.6 56.5 33 -2.4 27.7
13:25 1018 30.06 848 25.04 13.5 56.3 33 -2.5 27.6
13:30 1018 30.06 848 25.04 12.5 54.5 33 -3.5 25.8
13:35 1018 30.06 847 25.01 13.6 56.5 31 -3.1 26.3
13:40 1018 30.06 847 25.01 14.2 57.5 30 -3.1 26.4
13:45 1018 30.06 847 25.01 14.2 57.5 30 -3 26.6
13:50 1018 30.06 847 25.01 14.2 57.6 30 -3 26.5
13:55 1018 30.06 847 25.01 14.3 57.7 31 -2.6 27.3
14:00 1018 30.06 847 25.01 13.7 56.6 33 -2.3 27.9
14:05 1018 30.06 847 25.01 12.4 54.2 33 -3.3 26.1
14:10 1018 30.06 847 25.01 12.5 54.5 33 -3.2 26.3
14:15 1018 30.06 847 25.01 12.7 54.8 32 -3.5 25.8
14:20 1018 30.06 848 25.04 13.1 55.5 31 -3.6 25.5
14:25 1018 30.06 847 25.01 12.9 55.2 33 -2.8 27
14:30 1018 30.06 848 25.04 13.6 56.4 31 -3.2 26.3
14:35 1018 30.06 848 25.04 13.4 56.1 31 -3.3 26.1
14:40 1018 30.06 848 25.04 13.9 57 31 -3.1 26.5
14:45 1018 30.06 848 25.04 14.3 57.8 29 -3.4 25.8
14:50 1018 30.06 848 25.04 12.9 55.3 32 -3.2 26.2
14:55 1018 30.06 848 25.04 12.5 54.5 32 -3.6 25.5
15:00 1018 30.06 847 25.01 13 55.5 32 -3.2 26.2
15:05 1018 30.06 847 25.01 12.5 54.4 33 -3.4 25.9
15:10 1018 30.06 847 25.01 12.6 54.8 33 -3.4 26
15:15 1018 30.06 847 25.01 12.8 55.1 32 -3.5 25.7
15:20 1018 30.06 847 25.01 13.1 55.5 31 -3.5 25.7
15:25 1018 30.06 847 25.01 13.3 56 30 -3.7 25.3
15:30 1018 30.06 847 25.01 13.3 56 29 -4.4 24.1
15:35 1018 30.06 847 25.01 13.7 56.7 28 -4.3 24.2
15:40 1018 30.06 847 25.01 14 57.3 28 -4.2 24.5
15:45 1018 30.06 847 25.01 14.1 57.4 28 -4.1 24.6
15:50 1018 30.06 847 25.01 14.4 57.9 27 -4.1 24.6
15:55 1018 30.06 847 25.01 14.6 58.3 27 -4.3 24.3
16:00 1018 30.06 847 25.01 15 59 26 -4.3 24.3
16:05 1018 30.06 847 25.01 15.3 59.5 26 -4.2 24.4
16:10 1018 30.06 847 25.01 15.4 59.8 25 -4.5 24
16:15 1018 30.06 847 25.01 15.4 59.8 25 -4.3 24.2
16:20 1018 30.06 847 25.01 15.3 59.5 25 -4.3 24.2
16:25 1018 30.06 847 25.01 15.3 59.6 25 -4.3 24.2
16:30 1018 30.06 847 25.01 15.1 59.2 26 -4.3 24.2
16:35 1018 30.06 847 25.01 14.7 58.5 27 -3.9 25
16:40 1018 30.06 847 25.01 14 57.2 29 -3.8 25.2
16:45 1018 30.06 847 25.01 13.6 56.4 30 -3.5 25.8
16:50 1018 30.06 847 25.01 13.1 55.5 32 -3.4 25.9
16:55 1018 30.06 847 25.01 12.8 55 32 -3.5 25.8
17:00 1018 30.06 847 25.01 12.8 55.1 32 -3.6 25.5
17:05 1018 30.06 847 25.01 12.6 54.6 32 -3.6 25.5
17:10 1018 30.06 847 25.01 11.9 53.4 33 -3.8 25.2
17:15 1018 30.06 847 25.01 11.7 53 34 -3.7 25.3
17:20 1018 30.06 847 25.01 11.6 52.8 35 -3.3 26
17:25 1018 30.06 847 25.01 11.6 52.9 35 -3.4 25.9
17:30 1018 30.06 847 25.01 11.7 53.1 35 -3.1 26.4
17:35 1018 30.06 847 25.01 11.6 52.8 41 -1.2 29.9
17:40 1018 30.06 847 25.01 10.9 51.6 43 -1.2 29.9
17:45 1018 30.06 847 25.01 10.6 51.1 41 -2.2 28.1
17:50 1018 30.06 847 25.01 10.9 51.6 44 -0.8 30.5
17:55 1018 30.06 848 25.04 10.5 50.9 43 -1.5 29.4
18:00 1018 30.06 848 25.04 10.5 51 43 -1.6 29.1
18:05 1018 30.06 848 25.04 10.4 50.7 41 -2.2 28.1
18:10 1018 30.06 848 25.04 10.3 50.6 44 -1.3 29.7
18:15 1018 30.06 848 25.04 10.1 50.2 45 -1.1 29.9
18:20 1018 30.06 848 25.04 9.7 49.5 47 -1.1 30
18:25 1018 30.06 848 25.04 9.2 48.5 49 -0.9 30.3
18:30 1018 30.06 848 25.04 8.7 47.7 48 -1.6 29.1
18:35 1018 30.06 848 25.04 8.5 47.3 48 -1.9 28.6
18:40 1018 30.06 848 25.04 8.4 47.1 49 -1.7 28.9
18:45 1018 30.06 848 25.04 8.2 46.8 49 -1.7 28.9
18:50 1018 30.06 848 25.04 7.8 46.1 52 -1.4 29.4
18:55 1018 30.06 848 25.04 7.5 45.6 50 -2.1 28.2
19:00 1018 30.06 848 25.04 7.8 46.1 47 -2.6 27.2
19:05 1019 30.09 848 25.04 8.2 46.7 45 -2.9 26.8
19:10 1019 30.09 848 25.04 8.1 46.6 48 -2.3 27.8
19:15 1018 30.06 848 25.04 7.8 46 47 -2.9 26.9
19:20 1018 30.06 848 25.04 7.7 45.9 48 -2.6 27.4
19:25 1018 30.06 848 25.04 7.6 45.7 47 -2.9 26.8
19:30 1018 30.06 848 25.04 7.7 45.8 48 -2.8 27
19:35 1018 30.06 848 25.04 7.5 45.5 49 -2.6 27.2
19:40 1018 30.06 848 25.04 7.4 45.2 47 -3.3 26.1
19:45 1018 30.06 848 25.04 7.4 45.4 47 -3.2 26.3
19:50 1018 30.06 848 25.04 7.3 45.1 48 -3 26.6
19:55 1018 30.06 848 25.04 7.1 44.7 49 -3 26.5
20:00 1018 30.06 848 25.04 6.9 44.4 49 -3 26.5
20:05 1018 30.06 848 25.04 6.9 44.5 49 -3.2 26.3
20:10 1018 30.06 848 25.04 6.9 44.4 49 -3.1 26.4
20:15 1018 30.06 848 25.04 6.8 44.2 50 -2.9 26.9
20:20 1018 30.06 848 25.04 6.6 43.9 50 -3.2 26.3
20:25 1018 30.06 848 25.04 6.6 43.9 50 -3 26.5
20:30 1018 30.06 848 25.04 6.4 43.6 50 -3.2 26.2
20:35 1018 30.06 848 25.04 6.5 43.7 50 -3.3 26.1
20:40 1018 30.06 848 25.04 6.5 43.7 50 -3.3 26.1
20:45 1018 30.06 848 25.04 6.6 43.8 49 -3.4 25.9
20:50 1018 30.06 847 25.01 6.5 43.8 50 -3.2 26.2
20:55 1018 30.06 847 25.01 6.5 43.8 50 -3.1 26.5
21:00 1018 30.06 847 25.01 6.4 43.5 49 -3.6 25.6
21:05 1018 30.06 848 25.04 6.5 43.7 49 -3.3 26
21:10 1018 30.06 848 25.04 6.5 43.7 48 -3.6 25.5
21:15 1018 30.06 848 25.04 6.6 44 48 -3.5 25.7
21:20 1018 30.06 848 25.04 6.6 43.9 48 -3.6 25.6
21:25 1019 30.09 848 25.04 6.5 43.7 49 -3.5 25.6
21:30 1018 30.06 848 25.04 6.5 43.7 48 -3.7 25.3
21:35 1018 30.06 848 25.04 6.6 44 48 -3.7 25.4
21:40 1018 30.06 848 25.04 6.4 43.6 49 -3.5 25.6
21:45 1018 30.06 848 25.04 6.4 43.5 49 -3.7 25.4
21:50 1018 30.06 848 25.04 6.4 43.4 49 -3.7 25.4
21:55 1018 30.06 848 25.04 6.4 43.5 49 -3.6 25.5
22:00 1018 30.06 848 25.04 6.2 43.2 50 -3.6 25.6
22:05 1018 30.06 848 25.04 6.3 43.3 49 -3.8 25.2
22:10 1018 30.06 848 25.04 6.3 43.4 48 -3.9 25.1
22:15 1018 30.06 847 25.01 6.3 43.3 48 -3.9 25
22:20 1018 30.06 847 25.01 6.3 43.3 47 -4.1 24.7
22:25 1018 30.06 847 25.01 6.3 43.3 48 -4 24.8
22:30 1018 30.06 847 25.01 6.3 43.3 48 -3.9 25
22:35 1018 30.06 847 25.01 6.2 43.1 48 -3.9 24.9
22:40 1018 30.06 847 25.01 6.2 43.2 47 -4.2 24.5
22:45 1018 30.06 847 25.01 6.3 43.4 48 -3.8 25.1
22:50 1018 30.06 847 25.01 6.1 43 47 -4.4 24
22:55 1018 30.06 847 25.01 6.3 43.4 49 -3.5 25.7
23:00 1018 30.06 847 25.01 6.2 43.2 47 -4.2 24.4
23:05 1018 30.06 847 25.01 6.3 43.3 47 -4.1 24.6
23:10 1018 30.06 847 25.01 5.8 42.5 50 -3.8 25.2
23:15 1018 30.06 847 25.01 5.6 42 50 -4 24.7
23:20 1018 30.06 847 25.01 5.6 42.1 50 -4.1 24.7
23:25 1018 30.06 847 25.01 5.3 41.6 52 -3.6 25.5
23:30 1018 30.06 847 25.01 5.1 41.1 51 -4.2 24.4
23:35 1018 30.06 847 25.01 5.4 41.8 49 -4.5 23.9
23:40 1018 30.06 847 25.01 5.8 42.4 48 -4.2 24.4
23:45 1018 30.06 847 25.01 5.6 42.1 49 -4.2 24.5
23:50 1018 30.06 847 25.01 5.5 41.9 49 -4.3 24.3
23:55 1017 30.03 847 25.01 5.6 42 48 -4.5 23.9
24:00 1017 30.03 847 25.01 5.9 42.6 47 -4.7 23.6